createdAt,value
2022-11-14T00:03:14.146Z,20.73
2022-11-14T00:06:36.981Z,11.93
2022-11-14T00:10:00.006Z,10.85
2022-11-14T00:13:23.185Z,10.38
2022-11-14T00:16:46.882Z,20.55
2022-11-14T00:20:12.109Z,12.93
2022-11-14T00:23:34.929Z,10.63
2022-11-14T00:26:57.598Z,10.75
2022-11-14T00:30:20.642Z,7.07
2022-11-14T00:33:43.679Z,8.18
2022-11-14T00:37:06.405Z,23.63
2022-11-14T00:40:29.450Z,13.82
2022-11-14T00:43:52.504Z,16.15
2022-11-14T00:47:15.639Z,8.68
2022-11-14T00:50:39.101Z,10.75
2022-11-14T00:54:02.047Z,14.45
2022-11-14T00:57:24.671Z,12.05
2022-11-14T01:00:47.895Z,10.45
2022-11-14T01:04:10.692Z,10.75
2022-11-14T01:07:34.235Z,12.07
2022-11-14T01:10:57.012Z,16.65
2022-11-14T01:14:19.745Z,44.75
2022-11-14T01:17:42.655Z,11.77
2022-11-14T01:21:10.636Z,14.27
2022-11-14T01:24:34.863Z,7.72
2022-11-14T01:27:57.630Z,9.90
2022-11-14T01:31:23.440Z,11.48
2022-11-14T01:34:47.510Z,10.73
2022-11-14T01:38:15.602Z,9.05
2022-11-14T01:41:38.717Z,11.20
2022-11-14T01:45:01.912Z,8.95
2022-11-14T01:48:28.430Z,7.95
2022-11-14T01:52:04.795Z,9.07
2022-11-14T01:55:28.270Z,14.32
2022-11-14T01:58:58.016Z,30.88
2022-11-14T02:02:23.336Z,11.60
2022-11-14T02:05:49.644Z,16.83
2022-11-14T02:09:12.589Z,15.70
2022-11-14T02:12:36.589Z,8.20
2022-11-14T02:15:59.795Z,12.60
2022-11-14T02:19:22.557Z,11.65
2022-11-14T02:22:45.333Z,14.05
2022-11-14T02:26:08.472Z,11.98
2022-11-14T02:29:34.074Z,9.68
2022-11-14T02:33:10.435Z,10.82
2022-11-14T02:36:34.106Z,13.40
2022-11-14T02:39:57.294Z,7.05
2022-11-14T02:43:20.087Z,13.13
2022-11-14T02:46:43.151Z,11.90
2022-11-14T02:50:06.375Z,17.30
2022-11-14T02:53:29.661Z,9.85
2022-11-14T02:56:52.885Z,9.40
2022-11-14T03:00:16.110Z,9.57
2022-11-14T03:03:39.339Z,35.53
2022-11-14T03:07:02.641Z,46.55
2022-11-14T03:10:26.674Z,70.60
2022-11-14T03:13:49.929Z,19.13
2022-11-14T03:17:13.605Z,18.92
2022-11-14T03:20:36.856Z,15.05
2022-11-14T03:23:59.757Z,29.08
2022-11-14T03:27:22.592Z,21.17
2022-11-14T03:30:45.395Z,34.95
2022-11-14T03:34:08.316Z,10.77
2022-11-14T03:37:31.221Z,19.77
2022-11-14T03:40:54.784Z,9.60
2022-11-14T03:44:17.921Z,5.43
2022-11-14T03:47:41.105Z,6.95
2022-11-14T03:51:04.047Z,5.97
2022-11-14T03:54:28.041Z,7.65
2022-11-14T03:57:51.176Z,17.60
2022-11-14T04:01:14.394Z,7.90
2022-11-14T04:04:37.498Z,6.30
2022-11-14T04:08:00.502Z,28.08
2022-11-14T04:11:23.693Z,7.53
2022-11-14T04:14:46.569Z,12.27
2022-11-14T04:18:09.836Z,13.18
2022-11-14T04:21:32.720Z,7.85
2022-11-14T04:24:55.952Z,7.25
2022-11-14T04:28:18.990Z,5.45
2022-11-14T04:31:41.620Z,8.75
2022-11-14T04:35:05.162Z,6.22
2022-11-14T04:38:28.542Z,5.45
2022-11-14T04:41:51.966Z,9.98
2022-11-14T04:45:15.118Z,28.88
2022-11-14T04:48:37.666Z,7.47
2022-11-14T04:52:00.502Z,8.85
2022-11-14T04:55:23.098Z,8.73
2022-11-14T04:58:46.013Z,40.10
2022-11-14T05:02:10.346Z,10.05
2022-11-14T05:05:36.944Z,7.00
2022-11-14T05:09:03.569Z,11.95
2022-11-14T05:12:26.105Z,16.42
2022-11-14T05:15:49.358Z,6.30
2022-11-14T05:19:12.341Z,28.88
2022-11-14T05:22:35.219Z,10.90
2022-11-14T05:26:07.998Z,8.35
2022-11-14T05:29:30.764Z,12.07
2022-11-14T05:32:54.427Z,9.98
2022-11-14T05:36:19.096Z,9.30
2022-11-14T05:39:41.812Z,13.63
2022-11-14T05:43:04.467Z,8.00
2022-11-14T05:46:27.264Z,8.10
2022-11-14T05:49:50.428Z,12.73
2022-11-14T05:53:13.343Z,8.10
2022-11-14T05:56:36.228Z,9.63
2022-11-14T06:00:00.645Z,9.02
2022-11-14T06:03:23.503Z,10.80
2022-11-14T06:06:46.229Z,7.07
2022-11-14T06:10:09.350Z,9.32
2022-11-14T06:13:33.323Z,7.32
2022-11-14T06:16:56.304Z,11.90
2022-11-14T06:20:19.283Z,16.50
2022-11-14T06:23:43.235Z,5.80
2022-11-14T06:27:06.239Z,8.75
2022-11-14T06:30:29.503Z,8.40
2022-11-14T06:33:53.065Z,9.57
2022-11-14T06:37:15.866Z,7.82
2022-11-14T06:40:38.612Z,11.63
2022-11-14T06:44:01.763Z,14.10
2022-11-14T06:47:24.782Z,9.00
2022-11-14T06:50:54.242Z,14.82
2022-11-14T06:54:17.251Z,8.75
2022-11-14T06:57:40.792Z,18.23
2022-11-14T07:01:09.618Z,29.05
2022-11-14T07:04:32.303Z,11.88
2022-11-14T07:07:55.059Z,9.75
2022-11-14T07:11:28.108Z,17.60
2022-11-14T07:14:51.143Z,9.07
2022-11-14T07:18:14.542Z,19.67
2022-11-14T07:21:38.003Z,12.35
2022-11-14T07:25:00.707Z,29.58
2022-11-14T07:28:23.847Z,22.95
2022-11-14T07:31:46.803Z,21.75
2022-11-14T07:35:09.906Z,33.00
2022-11-14T07:38:34.107Z,30.92
2022-11-14T07:41:57.150Z,60.88
2022-11-14T07:45:20.974Z,149.68
2022-11-14T07:48:44.599Z,41.10
2022-11-14T07:52:08.118Z,40.38
2022-11-14T07:55:31.245Z,21.25
2022-11-14T07:58:54.259Z,49.35
2022-11-14T08:02:17.128Z,47.85
2022-11-14T08:05:39.873Z,54.03
2022-11-14T08:09:03.128Z,72.55
2022-11-14T08:12:25.941Z,35.03
2022-11-14T08:15:48.878Z,23.23
2022-11-14T08:19:11.848Z,20.98
2022-11-14T08:22:34.953Z,13.85
2022-11-14T08:26:00.626Z,18.70
2022-11-14T08:29:23.650Z,74.90
2022-11-14T08:32:47.053Z,56.78
2022-11-14T08:36:12.054Z,29.17
2022-11-14T08:39:35.845Z,26.00
2022-11-14T08:43:03.121Z,26.02
2022-11-14T08:46:26.110Z,34.88
2022-11-14T08:49:48.910Z,35.90
2022-11-14T08:53:11.787Z,36.78
2022-11-14T08:56:34.596Z,35.28
2022-11-14T08:59:57.569Z,32.13
2022-11-14T09:03:20.651Z,35.30
2022-11-14T09:06:43.241Z,37.15
2022-11-14T09:10:07.106Z,56.03
2022-11-14T09:13:30.627Z,52.95
2022-11-14T09:16:53.745Z,59.25
2022-11-14T09:20:17.140Z,104.15
2022-11-14T09:23:40.526Z,79.55
2022-11-14T09:27:03.195Z,63.50
2022-11-14T09:30:25.699Z,72.00
2022-11-14T09:33:48.053Z,79.70
2022-11-14T09:37:10.991Z,55.00
2022-11-14T09:40:46.621Z,40.83
2022-11-14T09:44:23.805Z,34.35
2022-11-14T09:48:06.173Z,32.55
2022-11-14T09:51:40.142Z,24.33
2022-11-14T09:55:14.065Z,18.35
2022-11-14T09:58:37.281Z,43.08
2022-11-14T10:02:02.578Z,76.25
2022-11-14T10:05:53.286Z,54.67
2022-11-14T10:09:53.123Z,62.22
2022-11-14T10:13:25.282Z,83.22
2022-11-14T10:17:00.065Z,121.22
2022-11-14T10:20:30.065Z,164.15
2022-11-14T10:24:25.052Z,153.73
2022-11-14T10:28:04.876Z,150.05
2022-11-14T10:32:09.378Z,127.97
2022-11-14T10:36:00.206Z,111.57
2022-11-14T10:39:52.297Z,104.43
2022-11-14T10:43:34.754Z,89.65
2022-11-14T10:47:04.471Z,75.13
2022-11-14T10:50:37.684Z,135.27
2022-11-14T10:54:08.051Z,83.20
2022-11-14T10:57:32.084Z,71.95
2022-11-14T11:00:55.066Z,58.63
2022-11-14T11:04:34.954Z,67.50
2022-11-14T11:12:05.130Z,77.88
2022-11-14T11:15:41.927Z,72.45
2022-11-14T11:19:28.696Z,94.38
2022-11-14T11:26:29.186Z,69.63
2022-11-14T11:30:21.497Z,68.13
2022-11-14T11:33:44.502Z,72.15
2022-11-14T11:37:26.363Z,88.75
2022-11-14T11:40:52.550Z,146.35
2022-11-14T11:44:19.997Z,134.32
2022-11-14T11:47:44.385Z,61.75
2022-11-14T11:51:13.876Z,68.95
2022-11-14T11:55:03.867Z,50.38
2022-11-14T11:58:45.514Z,111.97
2022-11-14T12:02:28.846Z,105.15
2022-11-14T12:06:17.931Z,102.35
2022-11-14T12:10:09.386Z,77.68
2022-11-14T12:13:51.773Z,76.60
2022-11-14T12:17:29.495Z,82.00
2022-11-14T12:21:16.591Z,46.38
2022-11-14T12:24:55.045Z,89.13
2022-11-14T12:28:23.999Z,167.43
2022-11-14T12:31:48.416Z,161.90
2022-11-14T12:35:23.239Z,163.77
2022-11-14T12:38:53.757Z,173.82
2022-11-14T12:42:22.975Z,85.22
2022-11-14T12:45:57.463Z,87.18
2022-11-14T12:49:56.738Z,88.95
2022-11-14T12:53:37.095Z,118.57
2022-11-14T12:57:04.819Z,109.32
2022-11-14T13:00:29.979Z,89.63
2022-11-14T13:04:17.531Z,79.30
2022-11-14T13:07:49.187Z,96.22
2022-11-14T13:11:51.585Z,100.32
2022-11-14T13:15:52.125Z,95.38
2022-11-14T13:19:41.254Z,88.28
2022-11-14T13:23:04.140Z,135.95
2022-11-14T13:26:26.868Z,130.15
2022-11-14T13:29:50.450Z,122.60
2022-11-14T13:33:53.674Z,114.88
2022-11-14T13:37:16.334Z,120.32
2022-11-14T13:41:24.214Z,116.15
2022-11-14T13:44:49.944Z,138.52
2022-11-14T13:48:24.503Z,135.63
2022-11-14T13:51:48.941Z,137.80
2022-11-14T13:55:39.915Z,157.65
2022-11-14T13:59:40.969Z,128.07
2022-11-14T14:03:38.130Z,155.15
2022-11-14T14:07:33.885Z,225.60
2022-11-14T14:11:06.936Z,227.80
2022-11-14T14:14:55.621Z,190.32
2022-11-14T14:18:53.362Z,115.80
2022-11-14T14:22:40.340Z,79.93
2022-11-14T14:26:33.686Z,80.88
2022-11-14T14:30:14.099Z,78.22
2022-11-14T14:33:48.331Z,109.63
2022-11-14T14:37:32.668Z,99.10
2022-11-14T14:40:57.104Z,116.05
2022-11-14T14:44:40.176Z,92.97
2022-11-14T14:48:13.971Z,87.10
2022-11-14T14:51:39.763Z,87.30
2022-11-14T14:55:03.876Z,86.57
2022-11-14T14:58:34.014Z,99.15
2022-11-14T15:01:58.521Z,101.03
2022-11-14T15:05:29.645Z,85.47
2022-11-14T15:08:53.051Z,102.20
2022-11-14T15:12:16.448Z,84.88
2022-11-14T15:15:40.550Z,76.88
2022-11-14T15:19:03.914Z,62.00
2022-11-14T15:22:30.168Z,68.28
2022-11-14T15:26:04.368Z,92.55
2022-11-14T15:29:29.160Z,75.30
2022-11-14T15:32:58.007Z,85.97
2022-11-14T15:36:21.142Z,71.78
2022-11-14T15:39:46.215Z,74.63
2022-11-14T15:43:45.968Z,80.75
2022-11-14T15:47:32.697Z,81.65
2022-11-14T15:50:55.351Z,76.05
2022-11-14T15:54:27.555Z,47.10
2022-11-14T15:58:00.978Z,53.10
2022-11-14T16:01:33.711Z,52.70
2022-11-14T16:04:59.201Z,58.05
2022-11-14T16:08:22.066Z,52.33
2022-11-14T16:11:47.696Z,59.67
2022-11-14T16:15:12.685Z,69.65
2022-11-14T16:18:35.461Z,76.80
2022-11-14T16:22:05.139Z,99.32
2022-11-14T16:25:30.427Z,69.40
2022-11-14T16:28:53.699Z,74.88
2022-11-14T16:32:18.175Z,62.75
2022-11-14T16:35:40.913Z,57.67
2022-11-14T16:39:11.387Z,43.50
2022-11-14T16:42:35.161Z,38.88
2022-11-14T16:45:58.103Z,35.42
2022-11-14T16:49:21.412Z,71.47
2022-11-14T16:52:44.438Z,49.53
2022-11-14T16:56:07.691Z,45.88
2022-11-14T16:59:30.787Z,51.75
2022-11-14T17:02:54.278Z,38.05
2022-11-14T17:06:17.379Z,37.10
2022-11-14T17:09:40.656Z,32.97
2022-11-14T17:13:05.439Z,54.42
2022-11-14T17:16:29.847Z,57.55
2022-11-14T17:19:52.710Z,53.38
2022-11-14T17:23:15.779Z,43.20
2022-11-14T17:26:38.842Z,39.50
2022-11-14T17:30:03.013Z,31.42
2022-11-14T17:33:25.939Z,35.42
2022-11-14T17:36:48.878Z,39.80
2022-11-14T17:40:15.451Z,38.03
2022-11-14T17:43:40.199Z,36.40
2022-11-14T17:47:03.417Z,36.00
2022-11-14T17:50:26.345Z,38.45
2022-11-14T17:53:49.210Z,38.60
2022-11-14T17:57:14.085Z,32.88
2022-11-14T18:00:37.674Z,32.90
2022-11-14T18:04:05.504Z,34.65
2022-11-14T18:07:31.533Z,33.35
2022-11-14T18:10:55.158Z,33.77
2022-11-14T18:14:18.467Z,28.58
2022-11-14T18:17:41.507Z,26.23
2022-11-14T18:21:23.587Z,18.92
2022-11-14T18:24:48.259Z,19.10
2022-11-14T18:28:11.243Z,28.80
2022-11-14T18:31:33.790Z,14.95
2022-11-14T18:34:57.535Z,13.90
2022-11-14T18:38:19.702Z,18.98
2022-11-14T18:41:42.903Z,25.90
2022-11-14T18:45:05.755Z,33.35
2022-11-14T18:48:28.501Z,41.65
2022-11-14T18:51:51.421Z,39.05
2022-11-14T18:55:15.040Z,37.72
2022-11-14T18:58:40.587Z,41.13
2022-11-14T19:02:03.148Z,37.08
2022-11-14T19:05:25.593Z,38.92
2022-11-14T19:08:48.574Z,38.00
2022-11-14T19:12:22.715Z,32.72
2022-11-14T19:15:45.824Z,32.42
2022-11-14T19:19:09.760Z,33.60
2022-11-14T19:22:32.819Z,27.02
2022-11-14T19:26:02.968Z,26.48
2022-11-14T19:29:26.615Z,26.65
2022-11-14T19:32:49.594Z,17.95
2022-11-14T19:36:27.867Z,20.25
2022-11-14T19:40:00.944Z,21.23
2022-11-14T19:43:26.162Z,34.58
2022-11-14T19:46:48.993Z,45.17
2022-11-14T19:50:12.262Z,42.50
2022-11-14T19:53:36.588Z,47.05
2022-11-14T19:56:59.861Z,30.38
2022-11-14T20:00:25.812Z,25.17
2022-11-14T20:04:00.657Z,22.45
2022-11-14T20:07:24.365Z,21.77
2022-11-14T20:11:04.899Z,22.63
2022-11-14T20:14:27.733Z,14.98
2022-11-14T20:17:50.178Z,13.98
2022-11-14T20:21:15.124Z,20.58
2022-11-14T20:24:38.225Z,23.25
2022-11-14T20:28:01.022Z,19.77
2022-11-14T20:31:29.686Z,21.23
2022-11-14T20:34:52.241Z,23.33
2022-11-14T20:38:15.437Z,18.25
2022-11-14T20:41:38.489Z,20.15
2022-11-14T20:45:01.659Z,24.92
2022-11-14T20:48:25.363Z,23.27
2022-11-14T20:51:51.089Z,28.55
2022-11-14T20:55:13.754Z,29.77
2022-11-14T20:58:36.543Z,34.63
2022-11-14T21:01:59.157Z,43.13
2022-11-14T21:05:21.929Z,41.42
2022-11-14T21:08:45.198Z,69.55
2022-11-14T21:12:08.560Z,66.55
2022-11-14T21:15:31.371Z,56.80
2022-11-14T21:18:55.507Z,57.15
2022-11-14T21:22:18.373Z,95.43
2022-11-14T21:25:42.035Z,141.77
2022-11-14T21:29:11.183Z,116.90
2022-11-14T21:32:37.101Z,140.10
2022-11-14T21:39:44.227Z,125.63
2022-11-14T21:43:07.397Z,134.27
2022-11-14T21:46:30.611Z,105.85
2022-11-14T21:50:00.960Z,121.43
2022-11-14T21:53:24.261Z,130.20
2022-11-14T21:56:47.163Z,129.18
2022-11-14T22:00:11.211Z,131.80
2022-11-14T22:03:52.432Z,112.93
2022-11-14T22:07:15.243Z,72.70
2022-11-14T22:10:37.792Z,103.25
2022-11-14T22:14:00.747Z,91.82
2022-11-14T22:17:23.391Z,34.20
2022-11-14T22:20:45.866Z,21.90
2022-11-14T22:24:08.491Z,73.05
2022-11-14T22:27:31.412Z,26.98
2022-11-14T22:31:24.356Z,14.05
2022-11-14T22:34:47.216Z,19.60
2022-11-14T22:38:09.660Z,13.52
2022-11-14T22:41:34.267Z,23.42
2022-11-14T22:44:57.253Z,28.27
2022-11-14T22:48:20.799Z,14.13
2022-11-14T22:51:43.921Z,15.35
2022-11-14T22:55:06.888Z,12.32
2022-11-14T22:58:33.389Z,20.17
2022-11-14T23:01:57.010Z,25.42
2022-11-14T23:05:19.821Z,14.27
2022-11-14T23:08:43.567Z,13.07
2022-11-14T23:12:08.091Z,29.85
2022-11-14T23:15:31.331Z,82.45
2022-11-14T23:18:58.563Z,46.42
2022-11-14T23:22:21.219Z,20.00
2022-11-14T23:25:44.341Z,30.80
2022-11-14T23:29:07.250Z,15.95
2022-11-14T23:32:30.640Z,20.85
2022-11-14T23:35:53.355Z,26.08
2022-11-14T23:39:16.315Z,15.80
2022-11-14T23:42:39.074Z,13.30
2022-11-14T23:46:01.800Z,30.40
2022-11-14T23:49:24.320Z,18.23
2022-11-14T23:52:47.906Z,11.32
2022-11-14T23:56:14.038Z,13.07
2022-11-14T23:59:37.428Z,14.68
